createdAt,value
2023-01-27T00:01:32.362Z,100544.38
2023-01-27T00:04:04.984Z,100544.89
2023-01-27T00:06:40.252Z,100541.21
2023-01-27T00:09:12.590Z,100541.43
2023-01-27T00:12:02.266Z,100541.85
2023-01-27T00:14:34.566Z,100543.11
2023-01-27T00:17:06.736Z,100539.93
2023-01-27T00:19:38.984Z,100539.27
2023-01-27T00:22:30.065Z,100539.23
2023-01-27T00:25:02.181Z,100539.52
2023-01-27T00:27:36.556Z,100538.34
2023-01-27T00:30:13.139Z,100539.66
2023-01-27T00:33:04.076Z,100541.97
2023-01-27T00:35:36.877Z,100545.50
2023-01-27T00:38:09.192Z,100550.11
2023-01-27T00:41:01.352Z,100547.40
2023-01-27T00:43:33.489Z,100546.97
2023-01-27T00:46:05.835Z,100544.14
2023-01-27T00:48:38.318Z,100546.73
2023-01-27T00:51:11.115Z,100545.81
2023-01-27T00:53:43.711Z,100543.30
2023-01-27T00:56:16.324Z,100545.74
2023-01-27T00:58:48.732Z,100551.04
2023-01-27T01:01:20.936Z,100552.37
2023-01-27T01:03:53.135Z,100551.69
2023-01-27T01:06:26.976Z,100554.30
2023-01-27T01:09:00.425Z,100554.25
2023-01-27T01:11:32.609Z,100557.51
2023-01-27T01:14:04.730Z,100554.42
2023-01-27T01:16:36.889Z,100555.05
2023-01-27T01:19:09.335Z,100555.70
2023-01-27T01:21:41.640Z,100555.02
2023-01-27T01:24:14.075Z,100552.91
2023-01-27T01:26:46.378Z,100550.55
2023-01-27T01:29:18.589Z,100548.38
2023-01-27T01:31:53.380Z,100545.61
2023-01-27T01:34:25.747Z,100548.35
2023-01-27T01:36:57.926Z,100551.56
2023-01-27T01:39:30.514Z,100554.24
2023-01-27T01:42:02.692Z,100553.79
2023-01-27T01:44:35.194Z,100556.06
2023-01-27T01:47:07.371Z,100557.88
2023-01-27T01:49:42.192Z,100557.80
2023-01-27T01:52:19.565Z,100557.91
2023-01-27T01:54:56.836Z,100555.30
2023-01-27T01:57:34.243Z,100556.19
2023-01-27T02:00:10.751Z,100553.23
2023-01-27T02:02:54.760Z,100555.21
2023-01-27T02:05:30.771Z,100547.93
2023-01-27T02:08:08.494Z,100546.92
2023-01-27T02:10:40.731Z,100545.71
2023-01-27T02:13:13.044Z,100544.06
2023-01-27T02:15:45.391Z,100546.89
2023-01-27T02:18:17.718Z,100547.58
2023-01-27T02:20:51.893Z,100550.62
2023-01-27T02:23:38.470Z,100548.78
2023-01-27T02:26:17.399Z,100550.40
2023-01-27T02:28:56.406Z,100555.67
2023-01-27T02:31:28.728Z,100561.90
2023-01-27T02:34:06.081Z,100566.37
2023-01-27T02:36:43.579Z,100567.30
2023-01-27T02:39:18.276Z,100570.02
2023-01-27T02:41:53.997Z,100575.04
2023-01-27T02:44:26.355Z,100580.20
2023-01-27T02:46:58.642Z,100580.42
2023-01-27T02:49:31.478Z,100581.99
2023-01-27T02:52:03.900Z,100576.49
2023-01-27T02:54:37.149Z,100575.87
2023-01-27T02:57:09.931Z,100576.60
2023-01-27T02:59:50.329Z,100584.02
2023-01-27T03:02:30.542Z,100584.61
2023-01-27T03:05:02.815Z,100587.99
2023-01-27T03:07:35.395Z,100586.77
2023-01-27T03:10:11.238Z,100585.90
2023-01-27T03:12:45.096Z,100589.26
2023-01-27T03:15:36.260Z,100592.14
2023-01-27T03:18:17.447Z,100596.00
2023-01-27T03:20:51.060Z,100595.06
2023-01-27T03:23:23.306Z,100597.98
2023-01-27T03:25:56.569Z,100595.77
2023-01-27T03:28:28.945Z,100594.82
2023-01-27T03:31:20.187Z,100592.73
2023-01-27T03:34:02.056Z,100599.00
2023-01-27T03:36:56.208Z,100594.79
2023-01-27T03:39:48.046Z,100596.29
2023-01-27T03:42:37.895Z,100594.63
2023-01-27T03:45:30.235Z,100593.50
2023-01-27T03:48:02.469Z,100596.82
2023-01-27T03:50:38.523Z,100597.20
2023-01-27T03:53:11.168Z,100599.91
2023-01-27T03:55:43.403Z,100602.09
2023-01-27T03:58:22.820Z,100598.41
2023-01-27T04:00:56.604Z,100598.03
2023-01-27T04:03:48.695Z,100594.12
2023-01-27T04:06:41.023Z,100598.05
2023-01-27T04:09:14.664Z,100591.73
2023-01-27T04:11:56.325Z,100588.61
2023-01-27T04:14:31.112Z,100594.85
2023-01-27T04:17:05.111Z,100594.65
2023-01-27T04:19:37.321Z,100601.80
2023-01-27T04:22:11.345Z,100603.69
2023-01-27T04:24:43.542Z,100615.83
2023-01-27T04:27:18.957Z,100620.88
2023-01-27T04:29:51.107Z,100621.91
2023-01-27T04:32:23.279Z,100624.46
2023-01-27T04:34:55.499Z,100618.24
2023-01-27T04:37:27.767Z,100620.30
2023-01-27T04:39:59.952Z,100627.20
2023-01-27T04:42:32.401Z,100625.52
2023-01-27T04:45:04.782Z,100623.91
2023-01-27T04:47:37.001Z,100627.86
2023-01-27T04:50:11.536Z,100628.61
2023-01-27T04:52:45.333Z,100632.48
2023-01-27T04:55:17.763Z,100634.23
2023-01-27T04:57:49.948Z,100638.95
2023-01-27T05:00:23.223Z,100645.70
2023-01-27T05:02:55.740Z,100645.91
2023-01-27T05:05:28.017Z,100651.92
2023-01-27T05:08:03.304Z,100653.36
2023-01-27T05:10:35.864Z,100652.40
2023-01-27T05:13:08.136Z,100657.69
2023-01-27T05:15:40.538Z,100659.13
2023-01-27T05:18:12.744Z,100662.13
2023-01-27T05:20:44.956Z,100663.27
2023-01-27T05:23:35.017Z,100664.10
2023-01-27T05:26:12.251Z,100668.83
2023-01-27T05:28:47.093Z,100669.66
2023-01-27T05:31:21.747Z,100671.36
2023-01-27T05:33:55.736Z,100677.23
2023-01-27T05:36:29.255Z,100677.63
2023-01-27T05:39:01.959Z,100678.98
2023-01-27T05:41:35.033Z,100682.08
2023-01-27T05:44:07.645Z,100685.42
2023-01-27T05:46:42.349Z,100689.52
2023-01-27T05:49:14.721Z,100691.81
2023-01-27T05:51:46.926Z,100690.27
2023-01-27T05:54:19.138Z,100691.75
2023-01-27T05:56:51.428Z,100690.94
2023-01-27T05:59:24.366Z,100695.23
2023-01-27T06:01:56.735Z,100696.52
2023-01-27T06:04:29.548Z,100702.38
2023-01-27T06:07:02.032Z,100702.97
2023-01-27T06:09:34.271Z,100701.30
2023-01-27T06:12:06.872Z,100705.71
2023-01-27T06:14:39.047Z,100703.11
2023-01-27T06:17:11.169Z,100708.64
2023-01-27T06:19:43.481Z,100712.28
2023-01-27T06:22:15.699Z,100712.95
2023-01-27T06:24:47.859Z,100708.73
2023-01-27T06:27:20.047Z,100707.37
2023-01-27T06:29:52.210Z,100711.98
2023-01-27T06:32:24.327Z,100715.50
2023-01-27T06:34:56.492Z,100715.87
2023-01-27T06:37:31.346Z,100714.25
2023-01-27T06:40:03.560Z,100713.16
2023-01-27T06:42:42.935Z,100715.69
2023-01-27T06:45:16.171Z,100719.69
2023-01-27T06:47:54.795Z,100722.87
2023-01-27T06:50:28.229Z,100726.23
2023-01-27T06:53:05.167Z,100729.63
2023-01-27T06:55:41.751Z,100735.85
2023-01-27T06:58:16.020Z,100736.50
2023-01-27T07:00:48.420Z,100736.11
2023-01-27T07:03:21.000Z,100738.09
2023-01-27T07:05:53.903Z,100741.61
2023-01-27T07:08:26.198Z,100742.86
2023-01-27T07:10:58.607Z,100743.86
2023-01-27T07:13:30.828Z,100744.10
2023-01-27T07:16:03.033Z,100745.88
2023-01-27T07:18:35.486Z,100746.85
2023-01-27T07:21:08.608Z,100748.45
2023-01-27T07:23:40.982Z,100747.40
2023-01-27T07:26:24.594Z,100749.73
2023-01-27T07:28:58.370Z,100748.49
2023-01-27T07:31:30.850Z,100751.95
2023-01-27T07:34:03.136Z,100755.80
2023-01-27T07:36:35.305Z,100760.16
2023-01-27T07:39:07.535Z,100757.80
2023-01-27T07:41:39.738Z,100758.08
2023-01-27T07:44:12.927Z,100761.79
2023-01-27T07:46:45.093Z,100763.70
2023-01-27T07:49:17.304Z,100761.88
2023-01-27T07:51:49.599Z,100760.83
2023-01-27T07:54:21.910Z,100761.20
2023-01-27T07:56:54.039Z,100767.21
2023-01-27T07:59:26.385Z,100766.94
2023-01-27T08:01:58.622Z,100765.30
2023-01-27T08:04:37.398Z,100767.88
2023-01-27T08:07:12.311Z,100763.66
2023-01-27T08:09:44.530Z,100763.41
2023-01-27T08:12:16.822Z,100764.56
2023-01-27T08:14:48.931Z,100761.69
2023-01-27T08:17:21.184Z,100760.29
2023-01-27T08:19:53.446Z,100762.48
2023-01-27T08:22:25.774Z,100765.34
2023-01-27T08:24:58.022Z,100765.27
2023-01-27T08:27:30.216Z,100769.00
2023-01-27T08:30:02.375Z,100768.89
2023-01-27T08:32:35.144Z,100769.46
2023-01-27T08:35:08.033Z,100772.12
2023-01-27T08:37:40.230Z,100772.83
2023-01-27T08:40:17.341Z,100782.23
2023-01-27T08:42:51.084Z,100789.13
2023-01-27T08:45:23.490Z,100793.59
2023-01-27T08:47:55.698Z,100797.77
2023-01-27T08:50:27.993Z,100803.73
2023-01-27T08:53:00.905Z,100810.08
2023-01-27T08:55:34.329Z,100806.19
2023-01-27T08:58:06.545Z,100805.95
2023-01-27T09:00:38.799Z,100805.52
2023-01-27T09:03:11.051Z,100807.20
2023-01-27T09:05:43.407Z,100814.19
2023-01-27T09:08:16.297Z,100813.44
2023-01-27T09:10:48.479Z,100815.73
2023-01-27T09:13:22.506Z,100816.52
2023-01-27T09:15:55.645Z,100818.86
2023-01-27T09:18:27.990Z,100820.60
2023-01-27T09:21:03.637Z,100820.30
2023-01-27T09:23:36.276Z,100824.98
2023-01-27T09:26:08.665Z,100826.10
2023-01-27T09:28:40.858Z,100831.09
2023-01-27T09:31:13.101Z,100831.48
2023-01-27T09:33:45.681Z,100833.73
2023-01-27T09:36:21.551Z,100832.55
2023-01-27T09:38:59.094Z,100829.10
2023-01-27T09:41:54.556Z,100833.56
2023-01-27T09:44:44.998Z,100835.91
2023-01-27T09:47:34.187Z,100836.04
2023-01-27T09:50:31.904Z,100833.23
2023-01-27T09:53:19.694Z,100831.97
2023-01-27T09:55:59.391Z,100831.89
2023-01-27T09:58:41.617Z,100830.05
2023-01-27T10:01:24.501Z,100826.66
2023-01-27T10:04:18.915Z,100831.74
2023-01-27T10:07:11.078Z,100833.41
2023-01-27T10:10:04.432Z,100834.59
2023-01-27T10:12:56.064Z,100837.44
2023-01-27T10:15:41.575Z,100840.48
2023-01-27T10:18:19.233Z,100842.32
2023-01-27T10:21:01.406Z,100845.41
2023-01-27T10:23:45.859Z,100842.34
2023-01-27T10:26:24.988Z,100842.73
2023-01-27T10:29:04.971Z,100845.26
2023-01-27T10:31:40.962Z,100842.02
2023-01-27T10:34:26.044Z,100842.45
2023-01-27T10:37:10.098Z,100843.04
2023-01-27T10:39:50.151Z,100845.58
2023-01-27T10:42:33.125Z,100847.04
2023-01-27T10:45:20.190Z,100850.79
2023-01-27T10:48:06.215Z,100847.81
2023-01-27T10:50:43.224Z,100851.86
2023-01-27T10:53:21.284Z,100850.70
2023-01-27T10:56:02.534Z,100854.11
2023-01-27T10:58:50.038Z,100855.30
2023-01-27T11:01:26.990Z,100853.95
2023-01-27T11:04:03.832Z,100853.48
2023-01-27T11:06:40.498Z,100854.96
2023-01-27T11:09:24.274Z,100856.73
2023-01-27T11:11:59.487Z,100851.63
2023-01-27T11:14:34.415Z,100855.46
2023-01-27T11:17:18.789Z,100851.11
2023-01-27T11:20:00.723Z,100843.05
2023-01-27T11:22:43.870Z,100846.01
2023-01-27T11:25:30.500Z,100843.89
2023-01-27T11:28:15.981Z,100844.23
2023-01-27T11:30:53.824Z,100842.83
2023-01-27T11:33:31.710Z,100842.23
2023-01-27T11:36:03.823Z,100851.11
2023-01-27T11:38:36.655Z,100846.54
2023-01-27T11:41:09.053Z,100851.29
2023-01-27T11:43:41.939Z,100855.06
2023-01-27T11:46:19.973Z,100851.46
2023-01-27T11:48:55.034Z,100855.48
2023-01-27T11:51:33.672Z,100849.30
2023-01-27T11:54:14.195Z,100850.77
2023-01-27T11:56:49.199Z,100848.59
2023-01-27T11:59:24.061Z,100841.13
2023-01-27T12:02:00.381Z,100841.32
2023-01-27T12:04:49.986Z,100841.80
2023-01-27T12:07:29.086Z,100845.55
2023-01-27T12:10:01.328Z,100842.73
2023-01-27T12:12:38.325Z,100838.16
2023-01-27T12:15:18.072Z,100838.68
2023-01-27T12:17:53.802Z,100841.60
2023-01-27T12:20:35.805Z,100842.08
2023-01-27T12:23:21.144Z,100838.20
2023-01-27T12:25:54.463Z,100835.59
2023-01-27T12:28:33.442Z,100835.19
2023-01-27T12:31:11.934Z,100835.50
2023-01-27T12:33:53.298Z,100836.38
2023-01-27T12:36:29.201Z,100838.83
2023-01-27T12:39:04.072Z,100841.54
2023-01-27T12:41:39.468Z,100842.26
2023-01-27T12:44:19.657Z,100846.48
2023-01-27T12:47:02.882Z,100845.61
2023-01-27T12:49:37.997Z,100840.66
2023-01-27T12:52:20.342Z,100839.52
2023-01-27T12:54:54.249Z,100839.02
2023-01-27T12:57:30.077Z,100834.95
2023-01-27T13:00:02.414Z,100835.85
2023-01-27T13:02:36.326Z,100836.66
2023-01-27T13:05:17.704Z,100838.21
2023-01-27T13:07:54.348Z,100849.33
2023-01-27T13:10:28.090Z,100847.95
2023-01-27T13:13:02.022Z,100845.11
2023-01-27T13:15:34.674Z,100841.38
2023-01-27T13:18:21.863Z,100845.50
2023-01-27T13:21:00.479Z,100847.90
2023-01-27T13:23:38.694Z,100849.63
2023-01-27T13:26:17.055Z,100853.96
2023-01-27T13:28:55.150Z,100856.25
2023-01-27T13:31:40.430Z,100855.11
2023-01-27T13:34:23.937Z,100855.08
2023-01-27T13:37:02.702Z,100857.42
2023-01-27T13:39:49.749Z,100864.12
2023-01-27T13:42:30.141Z,100867.36
2023-01-27T13:45:07.424Z,100864.22
2023-01-27T13:47:48.277Z,100869.42
2023-01-27T13:50:26.369Z,100874.41
2023-01-27T13:53:01.022Z,100873.15
2023-01-27T13:55:48.529Z,100879.86
2023-01-27T13:58:31.844Z,100882.14
2023-01-27T14:01:13.276Z,100883.62
2023-01-27T14:04:01.821Z,100883.48
2023-01-27T14:06:47.200Z,100885.42
2023-01-27T14:09:23.961Z,100885.26
2023-01-27T14:12:04.811Z,100889.72
2023-01-27T14:14:58.225Z,100886.70
2023-01-27T14:17:40.783Z,100893.77
2023-01-27T14:20:30.111Z,100898.85
2023-01-27T14:23:12.481Z,100893.66
2023-01-27T14:25:56.112Z,100894.73
2023-01-27T14:28:38.911Z,100896.59
2023-01-27T14:31:16.300Z,100895.20
2023-01-27T14:34:02.243Z,100890.24
2023-01-27T14:36:41.469Z,100893.16
2023-01-27T14:39:21.495Z,100895.12
2023-01-27T14:42:00.958Z,100896.90
2023-01-27T14:45:01.058Z,100900.54
2023-01-27T14:47:43.830Z,100901.60
2023-01-27T14:50:25.110Z,100900.21
2023-01-27T14:53:10.435Z,100902.23
2023-01-27T14:55:51.371Z,100903.59
2023-01-27T14:58:44.326Z,100902.66
2023-01-27T15:01:28.193Z,100905.11
2023-01-27T15:04:38.588Z,100900.02
2023-01-27T15:07:17.301Z,100900.15
2023-01-27T15:10:06.145Z,100898.27
2023-01-27T15:12:54.209Z,100905.27
2023-01-27T15:15:44.698Z,100907.38
2023-01-27T15:18:30.050Z,100909.02
2023-01-27T15:21:10.663Z,100907.90
2023-01-27T15:24:02.210Z,100910.72
2023-01-27T15:26:36.807Z,100911.83
2023-01-27T15:29:13.795Z,100910.95
2023-01-27T15:32:06.154Z,100921.30
2023-01-27T15:34:38.583Z,100915.43
2023-01-27T15:37:24.154Z,100910.24
2023-01-27T15:40:05.514Z,100915.74
2023-01-27T15:42:53.589Z,100913.44
2023-01-27T15:45:31.869Z,100919.42
2023-01-27T15:48:08.001Z,100924.27
2023-01-27T15:50:47.438Z,100921.41
2023-01-27T15:53:24.891Z,100925.42
2023-01-27T15:56:00.299Z,100922.97
2023-01-27T15:58:40.005Z,100926.39
2023-01-27T16:01:25.136Z,100933.63
2023-01-27T16:04:08.381Z,100935.01
2023-01-27T16:06:48.845Z,100937.21
2023-01-27T16:09:29.537Z,100938.59
2023-01-27T16:12:04.929Z,100942.60
2023-01-27T16:14:42.965Z,100944.80
2023-01-27T16:17:25.085Z,100943.88
2023-01-27T16:20:06.582Z,100947.55
2023-01-27T16:22:44.174Z,100947.29
2023-01-27T16:25:26.777Z,100945.19
2023-01-27T16:28:05.141Z,100944.80
2023-01-27T16:30:42.539Z,100949.65
2023-01-27T16:33:23.578Z,100953.16
2023-01-27T16:35:59.981Z,100960.55
2023-01-27T16:38:34.216Z,100960.15
2023-01-27T16:41:17.322Z,100965.59
2023-01-27T16:43:55.023Z,100961.03
2023-01-27T16:46:36.079Z,100957.02
2023-01-27T16:49:16.706Z,100955.78
2023-01-27T16:51:55.209Z,100951.05
2023-01-27T16:54:31.221Z,100954.45
2023-01-27T16:57:05.882Z,100956.97
2023-01-27T16:59:41.674Z,100960.92
2023-01-27T17:02:23.509Z,100967.36
2023-01-27T17:04:59.199Z,100965.42
2023-01-27T17:07:32.828Z,100966.86
2023-01-27T17:10:18.907Z,100969.33
2023-01-27T17:12:56.501Z,100969.46
2023-01-27T17:15:36.570Z,100972.17
2023-01-27T17:18:12.413Z,100973.31
2023-01-27T17:20:48.961Z,100973.34
2023-01-27T17:23:30.615Z,100975.39
2023-01-27T17:26:07.909Z,100977.74
2023-01-27T17:28:41.580Z,100978.02
2023-01-27T17:31:20.267Z,100977.73
2023-01-27T17:33:59.802Z,100980.35
2023-01-27T17:36:32.370Z,100981.38
2023-01-27T17:39:04.696Z,100983.23
2023-01-27T17:41:40.614Z,100983.65
2023-01-27T17:44:16.127Z,100984.05
2023-01-27T17:46:48.705Z,100991.18
2023-01-27T17:49:22.184Z,100990.61
2023-01-27T17:51:55.907Z,100992.24
2023-01-27T17:54:31.303Z,101002.47
2023-01-27T17:57:09.535Z,101008.60
2023-01-27T17:59:46.742Z,101003.14
2023-01-27T18:02:26.551Z,101007.41
2023-01-27T18:05:03.706Z,101008.20
2023-01-27T18:07:36.015Z,101014.56
2023-01-27T18:10:25.907Z,101020.09
2023-01-27T18:12:58.927Z,101020.27
2023-01-27T18:15:42.692Z,101022.70
2023-01-27T18:18:26.415Z,101027.17
2023-01-27T18:21:15.323Z,101029.48
2023-01-27T18:23:49.448Z,101030.16
2023-01-27T18:26:25.324Z,101029.52
2023-01-27T18:29:00.369Z,101031.27
2023-01-27T18:31:32.570Z,101033.75
2023-01-27T18:34:22.309Z,101035.00
2023-01-27T18:36:57.798Z,101032.81
2023-01-27T18:39:37.592Z,101040.35
2023-01-27T18:42:17.170Z,101045.51
2023-01-27T18:44:51.716Z,101041.92
2023-01-27T18:47:35.817Z,101040.02
2023-01-27T18:50:19.530Z,101042.30
2023-01-27T18:52:52.896Z,101043.64
2023-01-27T18:55:27.580Z,101042.45
2023-01-27T18:58:01.278Z,101039.32
2023-01-27T19:00:38.463Z,101039.04
2023-01-27T19:03:18.031Z,101039.89
2023-01-27T19:05:51.096Z,101043.68
2023-01-27T19:08:26.014Z,101044.89
2023-01-27T19:10:58.310Z,101043.04
2023-01-27T19:13:30.431Z,101042.44
2023-01-27T19:16:02.716Z,101043.95
2023-01-27T19:18:38.605Z,101051.91
2023-01-27T19:21:14.081Z,101053.55
2023-01-27T19:23:48.378Z,101056.84
2023-01-27T19:26:22.976Z,101057.02
2023-01-27T19:28:56.502Z,101054.55
2023-01-27T19:31:28.749Z,101056.73
2023-01-27T19:34:01.072Z,101057.65
2023-01-27T19:36:36.254Z,101054.73
2023-01-27T19:39:15.475Z,101056.42
2023-01-27T19:41:48.200Z,101059.65
2023-01-27T19:44:20.374Z,101053.80
2023-01-27T19:46:52.617Z,101057.81
2023-01-27T19:49:24.921Z,101058.30
2023-01-27T19:51:58.052Z,101064.84
2023-01-27T19:54:30.610Z,101065.23
2023-01-27T19:57:03.020Z,101064.23
2023-01-27T19:59:35.528Z,101062.80
2023-01-27T20:02:07.976Z,101063.02
2023-01-27T20:04:40.482Z,101062.45
2023-01-27T20:07:14.843Z,101063.21
2023-01-27T20:09:47.225Z,101065.66
2023-01-27T20:12:20.287Z,101059.02
2023-01-27T20:14:52.703Z,101064.17
2023-01-27T20:17:25.050Z,101063.55
2023-01-27T20:19:57.461Z,101070.48
2023-01-27T20:22:29.769Z,101069.44
2023-01-27T20:25:02.533Z,101071.11
2023-01-27T20:27:35.070Z,101073.85
2023-01-27T20:30:09.678Z,101079.34
2023-01-27T20:32:40.977Z,101081.00
2023-01-27T20:35:19.219Z,101084.71
2023-01-27T20:37:58.193Z,101088.96
2023-01-27T20:40:33.021Z,101091.15
2023-01-27T20:43:05.602Z,101091.92
2023-01-27T20:45:39.096Z,101092.63
2023-01-27T20:48:14.220Z,101096.70
2023-01-27T20:50:47.184Z,101100.20
2023-01-27T20:53:34.678Z,101102.83
2023-01-27T20:57:23.255Z,101103.27
2023-01-27T21:04:55.925Z,101099.59
2023-01-27T21:08:00.123Z,101104.95
2023-01-27T21:10:40.523Z,101101.05
2023-01-27T21:13:13.140Z,101102.92
2023-01-27T21:15:51.348Z,101100.12
2023-01-27T21:18:23.943Z,101102.23
2023-01-27T21:20:59.632Z,101098.73
2023-01-27T21:23:33.909Z,101097.71
2023-01-27T21:26:09.619Z,101102.50
2023-01-27T21:28:42.275Z,101099.50
2023-01-27T21:31:17.647Z,101096.11
2023-01-27T21:33:50.572Z,101097.29
2023-01-27T21:36:24.159Z,101099.63
2023-01-27T21:38:57.084Z,101093.88
2023-01-27T21:41:47.681Z,101093.02
2023-01-27T21:44:39.659Z,101090.77
2023-01-27T21:47:14.163Z,101086.23
2023-01-27T21:50:04.509Z,101081.41
2023-01-27T21:52:41.938Z,101078.66
2023-01-27T21:55:16.993Z,101080.77
2023-01-27T21:58:07.200Z,101084.83
2023-01-27T22:05:32.375Z,101079.60
2023-01-27T22:08:12.359Z,101083.92
2023-01-27T22:15:19.781Z,101084.56
2023-01-27T22:17:52.274Z,101080.39
2023-01-27T22:20:24.586Z,101080.77
2023-01-27T22:22:57.334Z,101083.44
2023-01-27T22:25:29.699Z,101080.52
2023-01-27T22:28:02.162Z,101081.72
2023-01-27T22:30:34.690Z,101083.11
2023-01-27T22:33:07.191Z,101080.71
2023-01-27T22:35:40.521Z,101082.86
2023-01-27T22:38:13.098Z,101088.17
2023-01-27T22:40:45.512Z,101083.42
2023-01-27T22:43:17.917Z,101082.94
2023-01-27T22:45:50.402Z,101085.66
2023-01-27T22:48:22.860Z,101083.49
2023-01-27T22:50:55.206Z,101080.70
2023-01-27T22:53:27.713Z,101081.88
2023-01-27T22:56:01.383Z,101078.39
2023-01-27T22:58:34.311Z,101080.23
2023-01-27T23:01:09.173Z,101075.63
2023-01-27T23:03:41.587Z,101077.31
2023-01-27T23:06:14.449Z,101082.22
2023-01-27T23:08:46.935Z,101082.20
2023-01-27T23:11:19.243Z,101083.27
2023-01-27T23:13:51.803Z,101085.30
2023-01-27T23:16:24.635Z,101083.09
2023-01-27T23:18:57.426Z,101078.81
2023-01-27T23:21:31.792Z,101078.23
2023-01-27T23:24:07.461Z,101074.48
2023-01-27T23:26:40.194Z,101073.75
2023-01-27T23:29:24.169Z,101072.58
2023-01-27T23:31:58.407Z,101070.05
2023-01-27T23:34:31.335Z,101064.80
2023-01-27T23:37:04.570Z,101068.17
2023-01-27T23:39:37.099Z,101070.98
2023-01-27T23:42:11.096Z,101065.36
2023-01-27T23:44:43.676Z,101058.28
2023-01-27T23:47:16.908Z,101058.42
2023-01-27T23:49:49.312Z,101060.49
2023-01-27T23:52:21.922Z,101060.95
2023-01-27T23:54:54.507Z,101062.70
2023-01-27T23:57:26.915Z,101055.60
2023-01-27T23:59:59.329Z,101055.27
